sensor_id;sensor_type;location;lat;lon;timestamp;temperature;humidity
46123;DHT22;31856;-35.404;149.120;2023-08-06T17:27:14;5.40;78.70
46123;DHT22;31856;-35.404;149.120;2023-08-06T17:29:45;5.30;79.10
46123;DHT22;31856;-35.404;149.120;2023-08-06T17:32:16;5.30;78.70
46123;DHT22;31856;-35.404;149.120;2023-08-06T17:34:46;5.30;78.70
46123;DHT22;31856;-35.404;149.120;2023-08-06T17:37:16;5.20;78.80
46123;DHT22;31856;-35.404;149.120;2023-08-06T17:39:45;5.20;78.30
46123;DHT22;31856;-35.404;149.120;2023-08-06T17:44:51;5.10;78.20
46123;DHT22;31856;-35.404;149.120;2023-08-06T17:47:22;5.10;77.90
46123;DHT22;31856;-35.404;149.120;2023-08-06T17:50:02;5.10;77.50
46123;DHT22;31856;-35.404;149.120;2023-08-06T17:52:33;5.00;77.80
46123;DHT22;31856;-35.404;149.120;2023-08-06T17:55:03;5.00;78.00
46123;DHT22;31856;-35.404;149.120;2023-08-06T17:57:32;5.00;78.30
46123;DHT22;31856;-35.404;149.120;2023-08-06T18:00:02;5.00;77.90
46123;DHT22;31856;-35.404;149.120;2023-08-06T18:02:32;5.00;77.50
46123;DHT22;31856;-35.404;149.120;2023-08-06T18:05:02;4.90;77.80
46123;DHT22;31856;-35.404;149.120;2023-08-06T18:07:31;4.90;78.50
46123;DHT22;31856;-35.404;149.120;2023-08-06T18:10:01;4.90;78.90
46123;DHT22;31856;-35.404;149.120;2023-08-06T18:12:30;4.80;79.00
46123;DHT22;31856;-35.404;149.120;2023-08-06T18:15:00;4.70;78.70
46123;DHT22;31856;-35.404;149.120;2023-08-06T18:17:29;4.80;78.10
46123;DHT22;31856;-35.404;149.120;2023-08-06T18:19:59;4.70;77.70
46123;DHT22;31856;-35.404;149.120;2023-08-06T18:22:28;4.60;78.10
46123;DHT22;31856;-35.404;149.120;2023-08-06T18:24:58;4.60;78.20
46123;DHT22;31856;-35.404;149.120;2023-08-06T18:27:30;4.60;78.00
46123;DHT22;31856;-35.404;149.120;2023-08-06T18:30:00;4.60;78.00
46123;DHT22;31856;-35.404;149.120;2023-08-06T18:32:29;4.60;77.60
46123;DHT22;31856;-35.404;149.120;2023-08-06T18:34:59;4.50;77.30
46123;DHT22;31856;-35.404;149.120;2023-08-06T18:37:28;4.40;77.30
46123;DHT22;31856;-35.404;149.120;2023-08-06T18:39:58;4.30;77.10
46123;DHT22;31856;-35.404;149.120;2023-08-06T18:42:30;4.30;77.40
46123;DHT22;31856;-35.404;149.120;2023-08-06T18:45:00;4.30;77.60
46123;DHT22;31856;-35.404;149.120;2023-08-06T18:47:29;4.30;77.80
46123;DHT22;31856;-35.404;149.120;2023-08-06T18:49:59;4.10;78.10
46123;DHT22;31856;-35.404;149.120;2023-08-06T18:52:29;4.20;78.40
46123;DHT22;31856;-35.404;149.120;2023-08-06T18:54:59;4.20;78.10
46123;DHT22;31856;-35.404;149.120;2023-08-06T18:57:28;4.10;77.80
46123;DHT22;31856;-35.404;149.120;2023-08-06T18:59:58;4.00;77.70
46123;DHT22;31856;-35.404;149.120;2023-08-06T19:02:28;4.00;77.90
46123;DHT22;31856;-35.404;149.120;2023-08-06T19:04:58;4.10;77.60
46123;DHT22;31856;-35.404;149.120;2023-08-06T19:07:31;4.00;78.00
46123;DHT22;31856;-35.404;149.120;2023-08-06T19:10:00;4.00;78.30
46123;DHT22;31856;-35.404;149.120;2023-08-06T19:12:30;4.00;78.50
46123;DHT22;31856;-35.404;149.120;2023-08-06T19:15:00;4.00;78.40
46123;DHT22;31856;-35.404;149.120;2023-08-06T19:17:29;3.90;78.40
46123;DHT22;31856;-35.404;149.120;2023-08-06T19:19:59;3.90;78.40
46123;DHT22;31856;-35.404;149.120;2023-08-06T19:22:28;3.90;78.50
46123;DHT22;31856;-35.404;149.120;2023-08-06T19:24:58;3.90;78.20
46123;DHT22;31856;-35.404;149.120;2023-08-06T19:27:27;3.90;78.30
46123;DHT22;31856;-35.404;149.120;2023-08-06T19:29:57;3.80;78.60
46123;DHT22;31856;-35.404;149.120;2023-08-06T19:32:26;3.80;78.40
46123;DHT22;31856;-35.404;149.120;2023-08-06T19:34:56;3.80;78.40
46123;DHT22;31856;-35.404;149.120;2023-08-06T19:37:26;3.80;78.50
46123;DHT22;31856;-35.404;149.120;2023-08-06T20:18:01;3.60;79.50
46123;DHT22;31856;-35.404;149.120;2023-08-06T20:20:34;3.50;79.30
46123;DHT22;31856;-35.404;149.120;2023-08-06T20:23:05;3.60;79.40
46123;DHT22;31856;-35.404;149.120;2023-08-06T20:25:36;3.50;79.40
46123;DHT22;31856;-35.404;149.120;2023-08-06T20:28:06;3.50;79.30
46123;DHT22;31856;-35.404;149.120;2023-08-06T20:30:36;3.40;79.20
46123;DHT22;31856;-35.404;149.120;2023-08-06T20:33:06;3.40;79.60
46123;DHT22;31856;-35.404;149.120;2023-08-06T20:35:39;3.50;80.10
46123;DHT22;31856;-35.404;149.120;2023-08-06T20:38:12;3.50;80.40
46123;DHT22;31856;-35.404;149.120;2023-08-06T20:40:42;3.40;80.00
46123;DHT22;31856;-35.404;149.120;2023-08-06T20:43:12;3.40;79.90
46123;DHT22;31856;-35.404;149.120;2023-08-06T20:45:42;3.40;80.20
46123;DHT22;31856;-35.404;149.120;2023-08-06T20:48:12;3.40;80.20
46123;DHT22;31856;-35.404;149.120;2023-08-06T20:50:42;3.40;79.90
46123;DHT22;31856;-35.404;149.120;2023-08-06T20:53:12;3.40;80.00
46123;DHT22;31856;-35.404;149.120;2023-08-06T20:55:42;3.40;80.00
46123;DHT22;31856;-35.404;149.120;2023-08-06T20:58:11;3.40;79.80
46123;DHT22;31856;-35.404;149.120;2023-08-06T21:00:41;3.40;79.70
46123;DHT22;31856;-35.404;149.120;2023-08-06T21:03:11;3.40;79.80
46123;DHT22;31856;-35.404;149.120;2023-08-06T21:05:41;3.40;79.90
46123;DHT22;31856;-35.404;149.120;2023-08-06T21:08:10;3.40;79.80
46123;DHT22;31856;-35.404;149.120;2023-08-06T21:10:40;3.40;79.90
46123;DHT22;31856;-35.404;149.120;2023-08-06T21:13:09;3.50;80.20
